createdAt,value
2019-04-27T00:02:28.609Z,7.90
2019-04-27T00:05:10.010Z,8.00
2019-04-27T00:07:44.001Z,8.10
2019-04-27T00:10:27.017Z,8.10
2019-04-27T00:12:59.726Z,8.20
2019-04-27T00:15:36.923Z,8.20
2019-04-27T00:18:34.188Z,8.20
2019-04-27T00:21:28.968Z,8.20
2019-04-27T00:23:59.418Z,8.20
2019-04-27T00:26:30.018Z,8.20
2019-04-27T00:29:01.723Z,8.10
2019-04-27T00:31:33.682Z,8.10
2019-04-27T00:34:04.427Z,8.10
2019-04-27T00:36:45.087Z,8.10
2019-04-27T00:39:28.028Z,8.10
2019-04-27T00:41:58.935Z,8.10
2019-04-27T00:44:29.488Z,8.10
2019-04-27T00:47:00.293Z,8.10
2019-04-27T00:49:32.917Z,8.00
2019-04-27T00:52:04.725Z,8.00
2019-04-27T00:54:35.264Z,8.00
2019-04-27T00:57:22.857Z,8.00
2019-04-27T01:00:11.372Z,8.00
2019-04-27T01:02:46.498Z,8.00
2019-04-27T01:05:20.572Z,8.10
2019-04-27T01:07:51.122Z,8.10
2019-04-27T01:10:23.287Z,8.10
2019-04-27T01:12:53.945Z,8.10
2019-04-27T01:15:24.663Z,8.10
2019-04-27T01:18:09.293Z,8.10
2019-04-27T01:20:28.430Z,8.10
2019-04-27T01:23:00.444Z,8.20
2019-04-27T01:25:42.964Z,8.20
2019-04-27T01:28:23.422Z,8.20
2019-04-27T01:30:57.077Z,8.20
2019-04-27T01:33:28.309Z,8.20
2019-04-27T01:35:59.976Z,8.20
2019-04-27T01:38:30.880Z,8.20
2019-04-27T01:41:02.113Z,8.20
2019-04-27T01:43:32.603Z,8.30
2019-04-27T01:46:03.039Z,8.30
2019-04-27T01:48:33.574Z,8.30
2019-04-27T01:51:04.438Z,8.30
2019-04-27T01:53:35.272Z,8.30
2019-04-27T01:56:05.858Z,8.40
2019-04-27T01:58:36.419Z,8.40
2019-04-27T02:01:24.690Z,8.50
2019-04-27T02:04:26.294Z,8.50
2019-04-27T02:06:58.989Z,8.60
2019-04-27T02:09:29.690Z,8.60
2019-04-27T02:12:00.167Z,8.60
2019-04-27T02:14:30.629Z,8.70
2019-04-27T02:17:01.442Z,8.70
2019-04-27T02:19:31.976Z,8.70
2019-04-27T02:22:02.586Z,8.70
2019-04-27T02:24:33.185Z,8.70
2019-04-27T02:27:03.732Z,8.80
2019-04-27T02:29:44.105Z,8.80
2019-04-27T02:32:32.493Z,8.80
2019-04-27T02:35:05.197Z,8.80
2019-04-27T02:37:35.782Z,8.80
2019-04-27T02:40:20.474Z,8.90
2019-04-27T02:42:54.510Z,8.90
2019-04-27T02:45:23.561Z,8.90
2019-04-27T02:47:54.089Z,8.90
2019-04-27T02:50:24.549Z,8.90
2019-04-27T02:52:55.234Z,9.00
2019-04-27T02:55:25.729Z,9.00
2019-04-27T02:57:56.234Z,9.00
2019-04-27T03:00:28.838Z,9.00
2019-04-27T03:03:03.608Z,9.00
2019-04-27T03:05:34.068Z,9.00
2019-04-27T03:08:04.611Z,9.10
2019-04-27T03:10:35.083Z,9.10
2019-04-27T03:13:30.737Z,9.10
2019-04-27T03:16:11.361Z,9.10
2019-04-27T03:18:47.185Z,9.10
2019-04-27T03:21:20.310Z,9.10
2019-04-27T03:23:50.868Z,9.10
2019-04-27T03:26:43.265Z,9.00
2019-04-27T03:29:14.561Z,9.00
2019-04-27T03:31:47.112Z,9.00
2019-04-27T03:34:21.762Z,9.00
2019-04-27T03:36:51.558Z,9.00
2019-04-27T03:39:22.338Z,9.00
2019-04-27T03:41:53.143Z,9.00
2019-04-27T03:44:23.689Z,9.00
2019-04-27T03:46:54.145Z,9.00
2019-04-27T03:49:34.553Z,9.00
2019-04-27T03:52:19.835Z,9.00
2019-04-27T03:54:59.902Z,9.00
2019-04-27T03:57:40.307Z,9.00
2019-04-27T04:00:16.016Z,9.00
2019-04-27T04:02:46.474Z,9.00
2019-04-27T04:05:19.655Z,9.00
2019-04-27T04:07:50.254Z,9.00
2019-04-27T04:10:21.574Z,9.00
2019-04-27T04:13:01.417Z,8.90
2019-04-27T04:15:59.965Z,8.90
2019-04-27T04:18:31.795Z,8.90
2019-04-27T04:21:02.545Z,9.00
2019-04-27T04:23:33.091Z,8.90
2019-04-27T04:26:03.603Z,8.90
2019-04-27T04:28:34.118Z,9.00
2019-04-27T04:31:04.604Z,9.00
2019-04-27T04:33:35.124Z,9.00
2019-04-27T04:36:05.670Z,9.10
2019-04-27T04:38:36.249Z,9.10
2019-04-27T04:41:10.581Z,9.10
2019-04-27T04:43:53.655Z,9.10
2019-04-27T04:46:40.545Z,9.20
2019-04-27T04:49:11.043Z,9.20
2019-04-27T04:51:41.632Z,9.20
2019-04-27T04:54:12.253Z,9.30
2019-04-27T04:56:43.067Z,9.30
2019-04-27T04:59:13.902Z,9.40
2019-04-27T05:01:44.442Z,9.40
2019-04-27T05:04:14.938Z,9.40
2019-04-27T05:06:45.449Z,9.50
2019-04-27T05:09:16.070Z,9.50
2019-04-27T05:11:46.591Z,9.50
2019-04-27T05:14:17.087Z,9.50
2019-04-27T05:16:48.922Z,9.50
2019-04-27T05:19:19.646Z,9.60
2019-04-27T05:21:50.274Z,9.60
2019-04-27T05:24:20.813Z,9.50
2019-04-27T05:26:51.777Z,9.50
2019-04-27T05:29:22.274Z,9.50
2019-04-27T05:31:52.748Z,9.60
2019-04-27T05:34:23.307Z,9.60
2019-04-27T05:36:53.753Z,9.60
2019-04-27T05:39:25.183Z,9.60
2019-04-27T05:41:57.221Z,9.70
2019-04-27T05:44:51.561Z,9.70
2019-04-27T05:47:39.266Z,9.70
2019-04-27T05:50:13.384Z,9.70
2019-04-27T05:52:45.238Z,9.70
2019-04-27T05:55:15.733Z,9.70
2019-04-27T05:57:46.260Z,9.70
2019-04-27T06:00:19.765Z,9.80
2019-04-27T06:02:50.864Z,9.80
2019-04-27T06:05:22.911Z,9.80
2019-04-27T06:07:53.684Z,9.80
2019-04-27T06:10:24.292Z,9.80
2019-04-27T06:12:54.848Z,9.80
2019-04-27T06:15:25.308Z,9.90
2019-04-27T06:17:56.189Z,9.90
2019-04-27T06:20:28.576Z,9.90
2019-04-27T06:22:59.149Z,9.90
2019-04-27T06:25:30.663Z,10.00
2019-04-27T06:28:01.281Z,10.00
2019-04-27T06:30:31.862Z,10.00
2019-04-27T06:33:02.504Z,10.00
2019-04-27T06:35:33.250Z,10.00
2019-04-27T06:38:03.424Z,10.00
2019-04-27T06:40:35.352Z,10.00
2019-04-27T06:43:03.949Z,10.00
2019-04-27T06:45:33.611Z,9.90
2019-04-27T06:48:02.963Z,9.90
2019-04-27T06:50:32.233Z,9.80
2019-04-27T06:53:01.606Z,9.80
2019-04-27T06:55:30.999Z,9.80
2019-04-27T06:58:00.841Z,9.70
2019-04-27T07:00:30.177Z,9.70
2019-04-27T07:02:59.727Z,9.70
2019-04-27T07:05:29.473Z,9.80
2019-04-27T07:07:59.218Z,9.80
2019-04-27T07:10:28.667Z,9.80
2019-04-27T07:12:59.730Z,9.80
2019-04-27T07:15:29.113Z,9.80
2019-04-27T07:17:58.685Z,9.90
2019-04-27T07:20:30.312Z,9.90
2019-04-27T07:22:59.501Z,9.90
2019-04-27T07:25:30.086Z,9.90
2019-04-27T07:27:59.374Z,10.00
2019-04-27T07:30:29.686Z,10.10
2019-04-27T07:33:00.386Z,10.10
2019-04-27T07:35:29.931Z,10.10
2019-04-27T07:37:59.331Z,10.10
2019-04-27T07:40:30.339Z,10.10
2019-04-27T07:43:06.997Z,10.10
2019-04-27T07:45:39.488Z,10.00
2019-04-27T07:48:09.237Z,10.00
2019-04-27T07:50:39.093Z,10.00
2019-04-27T07:53:08.787Z,10.00
2019-04-27T07:55:39.454Z,10.00
2019-04-27T07:58:08.972Z,10.00
2019-04-27T08:00:39.492Z,10.00
2019-04-27T08:03:10.012Z,10.00
2019-04-27T08:05:39.637Z,9.90
2019-04-27T08:08:09.062Z,10.00
2019-04-27T08:10:39.207Z,10.00
2019-04-27T08:13:10.126Z,10.00
2019-04-27T08:15:39.688Z,10.00
2019-04-27T08:18:09.349Z,10.10
2019-04-27T08:20:39.188Z,10.10
2019-04-27T08:23:09.643Z,10.20
2019-04-27T08:25:39.290Z,10.20
2019-04-27T08:28:43.188Z,10.10
2019-04-27T08:31:20.621Z,10.10
2019-04-27T08:33:50.005Z,10.00
2019-04-27T08:36:19.643Z,9.90
2019-04-27T08:38:49.154Z,9.90
2019-04-27T08:41:21.043Z,9.90
2019-04-27T08:43:49.588Z,9.90
2019-04-27T08:46:18.891Z,9.90
2019-04-27T08:48:48.999Z,9.90
2019-04-27T08:51:19.674Z,9.90
2019-04-27T08:53:50.110Z,9.90
2019-04-27T08:56:20.280Z,10.00
2019-04-27T08:58:49.763Z,10.00
2019-04-27T09:01:20.812Z,10.10
2019-04-27T09:03:50.402Z,10.30
2019-04-27T09:06:19.724Z,10.50
2019-04-27T09:08:55.226Z,10.60
2019-04-27T09:11:33.480Z,10.70
2019-04-27T09:14:13.360Z,10.90
2019-04-27T09:17:04.786Z,11.00
2019-04-27T09:19:46.641Z,11.00
2019-04-27T09:22:16.773Z,11.10
2019-04-27T09:24:47.080Z,11.20
2019-04-27T09:27:17.957Z,11.40
2019-04-27T09:29:49.796Z,11.50
2019-04-27T09:32:19.191Z,11.60
2019-04-27T09:34:49.680Z,11.80
2019-04-27T09:37:19.076Z,11.90
2019-04-27T09:39:48.409Z,12.20
2019-04-27T09:42:18.044Z,12.30
2019-04-27T09:44:48.031Z,12.40
2019-04-27T09:47:17.381Z,12.60
2019-04-27T09:49:46.861Z,12.70
2019-04-27T09:52:24.299Z,12.80
2019-04-27T09:54:48.143Z,13.00
2019-04-27T09:57:18.829Z,13.20
2019-04-27T09:59:48.272Z,13.30
2019-04-27T10:02:17.551Z,13.40
2019-04-27T10:04:46.808Z,13.60
2019-04-27T10:07:16.545Z,13.80
2019-04-27T10:09:47.500Z,14.00
2019-04-27T10:12:18.595Z,14.20
2019-04-27T10:14:48.320Z,14.30
2019-04-27T10:17:17.595Z,14.20
2019-04-27T10:19:46.933Z,14.10
2019-04-27T10:22:16.655Z,13.80
2019-04-27T10:24:45.983Z,13.70
2019-04-27T10:27:16.120Z,13.70
2019-04-27T10:29:46.902Z,13.60
2019-04-27T10:32:16.382Z,13.40
2019-04-27T10:34:46.811Z,13.40
2019-04-27T10:37:16.495Z,13.40
2019-04-27T10:39:46.045Z,13.50
2019-04-27T10:42:15.557Z,13.90
2019-04-27T10:44:46.171Z,14.20
2019-04-27T10:47:16.748Z,14.40
2019-04-27T10:49:56.694Z,14.50
2019-04-27T10:52:27.460Z,14.50
2019-04-27T10:54:57.444Z,14.40
2019-04-27T10:57:27.937Z,14.40
2019-04-27T10:59:57.244Z,14.40
2019-04-27T11:02:26.520Z,14.50
2019-04-27T11:05:12.239Z,14.60
2019-04-27T11:07:41.660Z,14.70
2019-04-27T11:10:11.221Z,14.80
2019-04-27T11:12:40.484Z,15.00
2019-04-27T11:15:10.170Z,15.10
2019-04-27T11:17:39.519Z,15.30
2019-04-27T11:20:08.977Z,15.30
2019-04-27T11:22:38.330Z,15.30
2019-04-27T11:25:07.569Z,15.10
2019-04-27T11:27:36.844Z,15.00
2019-04-27T11:30:07.472Z,14.90
2019-04-27T11:32:37.132Z,14.70
2019-04-27T11:35:27.765Z,14.60
2019-04-27T11:37:57.498Z,14.40
2019-04-27T11:40:28.068Z,14.10
2019-04-27T11:42:57.550Z,13.80
2019-04-27T11:45:28.468Z,13.60
2019-04-27T11:47:58.942Z,13.40
2019-04-27T11:50:28.230Z,13.30
2019-04-27T11:52:57.504Z,13.40
2019-04-27T11:55:27.471Z,13.50
2019-04-27T11:57:56.990Z,13.50
2019-04-27T12:00:27.687Z,13.70
2019-04-27T12:02:57.156Z,13.90
2019-04-27T12:05:26.604Z,14.10
2019-04-27T12:07:56.473Z,14.30
2019-04-27T12:10:26.266Z,14.50
2019-04-27T12:12:56.359Z,14.50
2019-04-27T12:15:26.408Z,14.50
2019-04-27T12:17:56.411Z,14.40
2019-04-27T12:20:26.068Z,14.40
2019-04-27T12:22:55.448Z,14.30
2019-04-27T12:25:24.686Z,14.20
2019-04-27T12:28:28.477Z,14.10
2019-04-27T12:31:02.994Z,14.00
2019-04-27T12:33:32.380Z,13.90
2019-04-27T12:36:01.753Z,13.90
2019-04-27T12:38:31.124Z,13.90
2019-04-27T12:41:00.481Z,13.90
2019-04-27T12:43:29.818Z,13.80
2019-04-27T12:45:59.189Z,13.80
2019-04-27T12:48:28.513Z,13.70
2019-04-27T12:50:58.173Z,13.70
2019-04-27T12:53:50.081Z,13.80
2019-04-27T12:56:19.345Z,14.10
2019-04-27T12:58:52.911Z,15.10
2019-04-27T13:01:22.557Z,16.60
2019-04-27T13:03:51.985Z,18.10
2019-04-27T13:06:21.266Z,19.10
2019-04-27T13:08:50.596Z,19.60
2019-04-27T13:11:22.769Z,19.40
2019-04-27T13:13:50.811Z,18.70
2019-04-27T13:16:20.159Z,18.40
2019-04-27T13:18:49.882Z,18.70
2019-04-27T13:21:20.881Z,18.90
2019-04-27T13:24:01.202Z,19.00
2019-04-27T13:26:21.324Z,18.80
2019-04-27T13:28:50.681Z,18.50
2019-04-27T13:31:20.090Z,18.40
2019-04-27T13:33:49.501Z,18.10
2019-04-27T13:36:18.760Z,17.70
2019-04-27T13:38:48.130Z,17.30
2019-04-27T13:41:27.866Z,17.00
2019-04-27T13:43:48.636Z,16.80
2019-04-27T13:46:43.265Z,16.50
2019-04-27T13:49:37.501Z,16.40
2019-04-27T13:52:10.433Z,16.20
2019-04-27T13:54:39.678Z,15.80
2019-04-27T13:57:08.927Z,15.50
2019-04-27T13:59:38.181Z,15.20
2019-04-27T14:02:07.514Z,14.90
2019-04-27T14:04:36.769Z,14.80
2019-04-27T14:07:06.033Z,14.60
2019-04-27T14:09:35.298Z,14.50
2019-04-27T14:12:18.796Z,14.40
2019-04-27T14:14:49.030Z,14.20
2019-04-27T14:17:19.341Z,14.00
2019-04-27T14:19:48.971Z,13.70
2019-04-27T14:22:18.364Z,13.50
2019-04-27T14:24:48.738Z,13.40
2019-04-27T14:27:19.433Z,13.80
2019-04-27T14:29:49.034Z,15.00
2019-04-27T14:32:18.869Z,15.90
2019-04-27T14:34:50.030Z,16.40
2019-04-27T14:37:19.282Z,16.80
2019-04-27T14:39:48.684Z,17.30
2019-04-27T14:42:22.218Z,17.10
2019-04-27T14:44:53.850Z,16.60
2019-04-27T14:47:23.185Z,16.00
2019-04-27T14:49:52.577Z,15.40
2019-04-27T14:52:22.020Z,15.00
2019-04-27T14:54:51.343Z,14.60
2019-04-27T14:57:21.880Z,14.30
2019-04-27T14:59:51.230Z,14.00
2019-04-27T15:02:20.726Z,13.80
2019-04-27T15:04:50.345Z,13.70
2019-04-27T15:07:19.620Z,13.50
2019-04-27T15:09:49.623Z,13.20
2019-04-27T15:12:24.492Z,12.90
2019-04-27T15:14:53.260Z,12.50
2019-04-27T15:17:25.555Z,12.10
2019-04-27T15:19:59.021Z,11.80
2019-04-27T15:22:30.204Z,11.60
2019-04-27T15:25:09.329Z,11.50
2019-04-27T15:27:42.128Z,11.60
2019-04-27T15:30:14.521Z,11.90
2019-04-27T15:33:16.193Z,12.30
2019-04-27T15:35:50.036Z,12.40
2019-04-27T15:38:22.676Z,12.30
2019-04-27T15:41:09.568Z,12.20
2019-04-27T15:43:40.192Z,12.10
2019-04-27T15:46:09.601Z,11.90
2019-04-27T15:48:39.050Z,11.70
2019-04-27T15:51:16.396Z,11.50
2019-04-27T15:53:41.463Z,11.50
2019-04-27T15:56:10.240Z,11.20
2019-04-27T15:58:39.525Z,10.90
2019-04-27T16:01:11.826Z,10.70
2019-04-27T16:03:40.448Z,10.50
2019-04-27T16:06:11.885Z,10.30
2019-04-27T16:08:44.953Z,10.10
2019-04-27T16:11:16.709Z,10.00
2019-04-27T16:13:42.645Z,9.80
2019-04-27T16:16:11.889Z,9.80
2019-04-27T16:18:41.149Z,9.70
2019-04-27T16:21:10.996Z,9.70
2019-04-27T16:23:43.030Z,9.70
2019-04-27T16:26:15.046Z,9.50
2019-04-27T16:28:43.117Z,9.50
2019-04-27T16:31:13.733Z,9.50
2019-04-27T16:33:42.970Z,9.50
2019-04-27T16:36:12.345Z,9.50
2019-04-27T16:38:53.212Z,9.50
2019-04-27T16:41:22.710Z,9.40
2019-04-27T16:43:51.961Z,9.30
2019-04-27T16:46:21.562Z,9.30
2019-04-27T16:48:50.894Z,9.30
2019-04-27T16:51:20.159Z,9.30
2019-04-27T16:53:49.452Z,9.20
2019-04-27T16:56:20.842Z,9.20
2019-04-27T16:58:56.787Z,9.20
2019-04-27T17:01:25.563Z,9.40
2019-04-27T17:03:55.225Z,9.60
2019-04-27T17:06:24.500Z,9.70
2019-04-27T17:08:57.687Z,10.00
2019-04-27T17:11:24.728Z,10.20
2019-04-27T17:14:01.385Z,10.60
2019-04-27T17:16:53.848Z,10.80
2019-04-27T17:19:35.760Z,10.80
2019-04-27T17:22:06.373Z,10.70
2019-04-27T17:24:45.258Z,10.60
2019-04-27T17:27:11.743Z,10.40
2019-04-27T17:29:41.448Z,10.30
2019-04-27T17:32:30.238Z,10.40
2019-04-27T17:35:02.079Z,10.40
2019-04-27T17:37:30.016Z,10.40
2019-04-27T17:40:00.904Z,10.40
2019-04-27T17:42:30.969Z,10.30
2019-04-27T17:45:01.209Z,10.20
2019-04-27T17:47:31.924Z,10.10
2019-04-27T17:50:01.480Z,9.90
2019-04-27T17:52:30.805Z,9.70
2019-04-27T17:55:00.631Z,9.40
2019-04-27T17:57:30.382Z,9.30
2019-04-27T18:00:03.113Z,9.10
2019-04-27T18:02:33.886Z,9.00
2019-04-27T18:05:01.925Z,8.90
2019-04-27T18:07:34.985Z,8.90
2019-04-27T18:10:04.247Z,8.80
2019-04-27T18:12:33.835Z,8.70
2019-04-27T18:15:03.205Z,8.70
2019-04-27T18:17:32.962Z,8.60
2019-04-27T18:20:04.982Z,8.60
2019-04-27T18:22:39.659Z,8.50
2019-04-27T18:25:10.070Z,8.50
2019-04-27T18:27:50.292Z,8.40
2019-04-27T18:30:29.019Z,8.40
2019-04-27T18:33:01.982Z,8.40
2019-04-27T18:35:29.728Z,8.40
2019-04-27T18:38:01.701Z,8.30
2019-04-27T18:40:32.554Z,8.30
2019-04-27T18:43:02.019Z,8.30
2019-04-27T18:45:32.642Z,8.30
2019-04-27T18:48:13.298Z,8.30
2019-04-27T18:50:59.723Z,8.30
2019-04-27T18:53:29.772Z,8.30
2019-04-27T18:56:04.865Z,8.40
2019-04-27T18:58:30.086Z,8.40
2019-04-27T19:00:59.714Z,8.40
2019-04-27T19:03:31.563Z,8.40
2019-04-27T19:06:00.312Z,8.40
2019-04-27T19:08:29.676Z,8.40
2019-04-27T19:11:00.432Z,8.30
2019-04-27T19:13:29.950Z,8.30
2019-04-27T19:15:59.915Z,8.20
2019-04-27T19:18:29.217Z,8.20
2019-04-27T19:20:58.568Z,8.10
2019-04-27T19:23:28.557Z,8.10
2019-04-27T19:26:10.491Z,8.00
2019-04-27T19:29:08.567Z,7.90
2019-04-27T19:31:43.863Z,7.80
2019-04-27T19:34:13.395Z,7.80
2019-04-27T19:36:44.377Z,7.70
2019-04-27T19:39:14.206Z,7.70
2019-04-27T19:41:57.029Z,7.70
2019-04-27T19:44:18.825Z,7.60
2019-04-27T19:46:49.228Z,7.70
2019-04-27T19:49:19.374Z,7.60
2019-04-27T19:51:49.108Z,7.60
2019-04-27T19:54:18.350Z,7.60
2019-04-27T19:56:47.644Z,7.60
2019-04-27T19:59:24.633Z,7.60
2019-04-27T20:01:55.608Z,7.60
2019-04-27T20:04:31.372Z,7.60
2019-04-27T20:07:00.686Z,7.60
2019-04-27T20:09:39.413Z,7.50
2019-04-27T20:12:10.471Z,7.50
2019-04-27T20:14:58.692Z,7.50
2019-04-27T20:17:30.898Z,7.50
2019-04-27T20:20:00.029Z,7.50
2019-04-27T20:22:29.665Z,7.60
2019-04-27T20:24:58.898Z,7.50
2019-04-27T20:27:28.645Z,7.60
2019-04-27T20:29:57.894Z,7.50
2019-04-27T20:32:27.144Z,7.50
2019-04-27T20:34:56.381Z,7.50
2019-04-27T20:37:26.013Z,7.50
2019-04-27T20:39:55.760Z,7.60
2019-04-27T20:42:25.101Z,7.60
2019-04-27T20:44:54.393Z,7.60
2019-04-27T20:47:23.701Z,7.60
2019-04-27T20:49:52.946Z,7.50
2019-04-27T20:52:56.377Z,7.50
2019-04-27T20:55:25.692Z,7.50
2019-04-27T20:58:01.831Z,7.50
2019-04-27T21:00:25.930Z,7.50
2019-04-27T21:03:02.674Z,7.50
2019-04-27T21:06:06.450Z,7.50
2019-04-27T21:08:36.955Z,7.50
2019-04-27T21:11:06.220Z,7.50
2019-04-27T21:13:35.506Z,7.50
2019-04-27T21:16:04.777Z,7.50
2019-04-27T21:18:34.017Z,7.50
2019-04-27T21:21:03.333Z,7.40
2019-04-27T21:23:32.753Z,7.40
2019-04-27T21:26:02.338Z,7.40
2019-04-27T21:28:32.036Z,7.40
2019-04-27T21:31:01.499Z,7.40
2019-04-27T21:33:31.802Z,7.40
2019-04-27T21:36:01.461Z,7.40
2019-04-27T21:38:30.876Z,7.30
2019-04-27T21:41:00.141Z,7.30
2019-04-27T21:43:29.373Z,7.30
2019-04-27T21:45:58.644Z,7.30
2019-04-27T21:48:27.990Z,7.30
2019-04-27T21:50:57.253Z,7.30
2019-04-27T21:54:00.716Z,7.30
2019-04-27T21:56:31.307Z,7.30
2019-04-27T21:59:01.137Z,7.30
2019-04-27T22:01:32.161Z,7.30
2019-04-27T22:04:03.305Z,7.30
2019-04-27T22:06:32.654Z,7.30
2019-04-27T22:09:01.952Z,7.30
2019-04-27T22:11:32.856Z,7.30
2019-04-27T22:14:12.338Z,7.30
2019-04-27T22:16:45.676Z,7.30
2019-04-27T22:19:14.952Z,7.30
2019-04-27T22:21:44.185Z,7.30
2019-04-27T22:24:24.511Z,7.30
2019-04-27T22:26:53.788Z,7.30
2019-04-27T22:29:23.099Z,7.30
2019-04-27T22:31:52.731Z,7.30
2019-04-27T22:34:22.460Z,7.30
2019-04-27T22:36:52.670Z,7.40
2019-04-27T22:39:41.073Z,7.40
2019-04-27T22:42:24.357Z,7.40
2019-04-27T22:44:57.536Z,7.40
2019-04-27T22:47:26.821Z,7.40
2019-04-27T22:49:56.054Z,7.30
2019-04-27T22:52:25.293Z,7.40
2019-04-27T22:54:54.525Z,7.30
2019-04-27T22:57:31.458Z,7.40
2019-04-27T23:00:11.271Z,7.40
2019-04-27T23:02:46.667Z,7.40
2019-04-27T23:05:15.914Z,7.40
2019-04-27T23:07:45.166Z,7.40
2019-04-27T23:10:14.608Z,7.40
2019-04-27T23:12:43.874Z,7.40
2019-04-27T23:15:17.353Z,7.30
2019-04-27T23:17:52.534Z,7.30
2019-04-27T23:20:22.388Z,7.30
2019-04-27T23:22:51.653Z,7.30
2019-04-27T23:25:20.901Z,7.20
2019-04-27T23:27:51.419Z,7.20
2019-04-27T23:30:23.420Z,7.20
2019-04-27T23:32:53.041Z,7.20
2019-04-27T23:35:22.274Z,7.10
2019-04-27T23:37:52.838Z,7.10
2019-04-27T23:40:22.381Z,7.10
2019-04-27T23:42:51.746Z,7.20
2019-04-27T23:45:22.438Z,7.10
2019-04-27T23:47:52.191Z,7.10
2019-04-27T23:50:21.979Z,7.20
2019-04-27T23:53:09.637Z,7.20
2019-04-27T23:55:39.183Z,7.20
2019-04-27T23:58:08.413Z,7.10
